Terminal Aerodrome Forecast
Issued by NWS Wilmington, OH

Home | Current Version | Previous Version | Text Only | Print | Product List | Glossary On
Versions: 1 2 3 4 5 6 7 8 9 10 11 12 13 14 15 16 17 18 19 20 21 22 23
000
FTUS41 KILN 211800 AAA
TAFCMH
TAF AMD
KCMH 211858Z 2119/2218 27022G30KT P6SM FEW040
     FM212000 29017G27KT P6SM BKN040
     FM220000 30012KT P6SM OVC020
     FM221400 34009KT P6SM SCT025=

USA.gov is the U.S. government's official web portal to all federal, state and local government web resources and services.